Terminal Aerodrome Forecast
Issued by NWS Memphis, TN

Home | Current Version | Previous Version | Text Only | Print | Product List | Glossary On
Versions: 1 2 3 4 5 6 7 8 9 10 11 12
000
FTUS44 KMEG 201100
TAFJBR
TAF
KJBR 201130Z 2012/2112 VRB03KT P6SM FEW150 BKN250
     FM201500 20008KT P6SM FEW150 BKN250
     FM210000 21006KT P6SM FEW050 BKN150
     FM210700 22004KT P6SM BKN050 BKN150=

USA.gov is the U.S. government's official web portal to all federal, state and local government web resources and services.